Time;durP1;ratioP1;P1;durP2;ratioP2;P2;SDS_P1;SDS_P2;PMS_P1;PMS_P2;Temp;Humidity;BMP_temperature;BMP_pressure;BME280_temperature;BME280_humidity;BME280_pressure;Samples;Min_cycle;Max_cycle;Signal;HPM_P1;HPM_P2
2023/11/01 00:01:10;;;;;;;;;;;;;;;26.19;40.97;93856.75;5051649;28;7131;-62
2023/11/01 00:03:39;;;;;;;;;;;;;;;26.17;41.18;93857.28;5040616;28;7000;-62
2023/11/01 00:06:11;;;;;;;;;;;;;;;26.17;41.05;93865.56;5029527;28;8736;-62
2023/11/01 00:08:37;;;;;;;;;;;;;;;26.12;41.70;93855.38;5053010;28;8741;-62
2023/11/01 00:11:04;;;;;;;;;;;;;;;26.14;41.45;93841.06;5034621;28;9146;-63
2023/11/01 00:13:37;;;;;;;;;;;;;;;26.11;41.33;93837.34;5055014;28;7154;-62
2023/11/01 00:16:09;;;;;;;;;;;;;;;26.10;40.76;93833.09;5022659;28;7081;-62
2023/11/01 00:18:36;;;;;;;;;;;;;;;26.12;41.78;93832.59;5037693;28;9150;-62
2023/11/01 00:21:04;;;;;;;;;;;;;;;26.10;41.75;93832.34;5039652;28;7177;-62
2023/11/01 00:23:32;;;;;;;;;;;;;;;26.08;41.55;93832.88;5044512;28;7108;-62
2023/11/01 00:25:58;;;;;;;;;;;;;;;26.07;41.53;93825.88;5035540;28;8741;-62
2023/11/01 00:28:28;;;;;;;;;;;;;;;26.09;41.48;93834.38;5034720;28;7260;-62
2023/11/01 00:31:05;;;;;;;;;;;;;;;26.06;41.36;93826.38;5042606;28;7412;-62
2023/11/01 00:34:00;;;;;;;;;;;;;;;26.06;41.37;93829.13;5046104;28;7330;-62
2023/11/01 00:36:41;;;;;;;;;;;;;;;26.06;41.49;93829.13;4982721;28;7070;-62
2023/11/01 00:39:34;;;;;;;;;;;;;;;26.06;41.82;93829.88;4974312;28;7147;-62
2023/11/01 00:42:04;;;;;;;;;;;;;;;26.06;41.48;93824.38;4988145;28;8743;-62
2023/11/01 00:44:40;;;;;;;;;;;;;;;26.05;41.62;93824.91;4992635;28;9114;-54
2023/11/01 00:47:36;;;;;;;;;;;;;;;26.03;41.43;93821.94;4984279;28;7129;-55
2023/11/01 00:50:19;;;;;;;;;;;;;;;26.01;41.62;93811.44;4934183;28;9142;-55
2023/11/01 00:52:45;;;;;;;;;;;;;;;26.00;41.90;93809.97;4934329;28;7054;-55
2023/11/01 00:55:22;;;;;;;;;;;;;;;26.02;41.97;93814.94;4941777;28;7096;-55
2023/11/01 00:57:57;;;;;;;;;;;;;;;26.01;41.48;93810.72;4925688;28;7178;-55
2023/11/01 01:01:08;;;;;;;;;;;;;;;26.02;41.87;93810.16;4935313;28;7766;-54
2023/11/01 01:03:36;;;;;;;;;;;;;;;26.00;41.17;93809.97;4918661;29;7350;-55
2023/11/01 01:06:12;;;;;;;;;;;;;;;25.97;41.67;93805.50;4932191;28;7050;-55
2023/11/01 01:08:47;;;;;;;;;;;;;;;25.99;41.63;93808.47;4937459;28;7005;-55
2023/11/01 01:11:13;;;;;;;;;;;;;;;25.97;41.52;93810.25;4935049;28;7002;-55
2023/11/01 01:13:48;;;;;;;;;;;;;;;25.96;41.63;93808.78;4971172;28;7058;-55
2023/11/01 01:16:59;;;;;;;;;;;;;;;25.96;41.39;93798.50;4973608;28;8603;-55
2023/11/01 01:19:35;;;;;;;;;;;;;;;25.94;40.96;93781.75;4882839;29;8610;-55
2023/11/01 01:25:54;;;;;;;;;;;;;;;25.93;41.89;93788.53;4903006;29;8700;-55
2023/11/01 01:28:38;;;;;;;;;;;;;;;25.89;41.34;93788.09;4933658;29;7326;-55
2023/11/01 01:31:37;;;;;;;;;;;;;;;25.90;41.71;93775.78;4929043;29;8444;-55
2023/11/01 01:34:23;;;;;;;;;;;;;;;25.88;42.02;93772.81;4928460;28;7238;-54
2023/11/01 01:37:18;;;;;;;;;;;;;;;25.87;42.04;93768.59;4929775;29;7825;-55
2023/11/01 01:40:11;;;;;;;;;;;;;;;25.88;41.92;93766.59;4918738;29;7258;-55
2023/11/01 01:42:39;;;;;;;;;;;;;;;25.85;41.58;93759.38;4905197;29;7743;-55
2023/11/01 01:45:07;;;;;;;;;;;;;;;25.80;41.66;93736.16;4909433;29;7058;-55
2023/11/01 01:47:43;;;;;;;;;;;;;;;25.80;42.13;93741.66;4899682;29;8045;-55
2023/11/01 01:50:21;;;;;;;;;;;;;;;25.81;41.74;93740.41;4917828;29;7153;-55
2023/11/01 01:52:47;;;;;;;;;;;;;;;25.82;41.71;93733.63;4919556;29;7089;-55
2023/11/01 01:55:53;;;;;;;;;;;;;;;25.82;42.05;93730.13;4924364;28;7662;-65
2023/11/01 01:58:22;;;;;;;;;;;;;;;25.80;41.70;93727.91;4970614;28;7309;-64
2023/11/01 02:01:33;;;;;;;;;;;;;;;25.81;42.13;93736.91;4994158;28;8105;-65
2023/11/01 02:04:10;;;;;;;;;;;;;;;25.81;41.74;93731.41;4911588;29;7263;-65
2023/11/01 02:06:45;;;;;;;;;;;;;;;25.82;41.49;93727.34;4894423;29;8194;-65
2023/11/01 02:09:17;;;;;;;;;;;;;;;25.82;42.28;93724.59;4909284;29;7252;-65
2023/11/01 02:12:13;;;;;;;;;;;;;;;25.79;41.83;93726.44;4914179;29;9333;-65
2023/11/01 02:14:49;;;;;;;;;;;;;;;25.77;42.49;93714.44;4868614;29;7066;-65
2023/11/01 02:17:15;;;;;;;;;;;;;;;25.74;42.05;93710.72;4893243;29;9117;-65
2023/11/01 02:20:08;;;;;;;;;;;;;;;25.75;42.34;93722.50;4898220;29;9427;-64
2023/11/01 02:22:45;;;;;;;;;;;;;;;25.75;42.06;93717.00;4877339;29;7241;-64
2023/11/01 02:25:13;;;;;;;;;;;;;;;25.74;41.93;93710.72;4894970;29;7075;-64
2023/11/01 02:27:46;;;;;;;;;;;;;;;25.74;42.36;93705.22;4896098;29;8779;-64
2023/11/01 02:30:16;;;;;;;;;;;;;;;25.72;42.11;93702.25;4889132;29;7153;-64
2023/11/01 02:33:01;;;;;;;;;;;;;;;25.74;41.54;93698.97;4875337;29;7267;-64
2023/11/01 02:35:28;;;;;;;;;;;;;;;25.70;41.83;93704.81;4892354;29;8458;-64
2023/11/01 02:37:56;;;;;;;;;;;;;;;25.69;41.74;93706.06;4894142;29;9047;-64
2023/11/01 02:40:42;;;;;;;;;;;;;;;25.69;42.46;93688.78;4918530;28;8792;-64
2023/11/01 02:43:41;;;;;;;;;;;;;;;25.68;41.96;93682.56;4969543;28;7237;-64
2023/11/01 02:46:33;;;;;;;;;;;;;;;25.67;41.84;93677.56;4858938;29;7260;-64
2023/11/01 02:49:29;;;;;;;;;;;;;;;25.66;41.95;93682.34;4851259;29;7295;-65
2023/11/01 02:52:07;;;;;;;;;;;;;;;25.65;42.58;93680.09;4855881;29;9040;-64
2023/11/01 02:54:33;;;;;;;;;;;;;;;25.65;41.83;93678.09;4841510;29;8499;-64
2023/11/01 02:57:30;;;;;;;;;;;;;;;25.65;42.33;93674.59;4861511;29;7215;-64
2023/11/01 03:00:07;;;;;;;;;;;;;;;25.66;41.69;93670.56;4826404;29;8859;-64
2023/11/01 03:02:36;;;;;;;;;;;;;;;25.63;41.69;93677.13;4838563;29;7222;-64
2023/11/01 03:05:05;;;;;;;;;;;;;;;25.64;41.71;93673.88;4833829;29;7414;-55
2023/11/01 03:07:31;;;;;;;;;;;;;;;25.62;41.83;93670.16;4829767;29;7814;-55
2023/11/01 03:10:43;;;;;;;;;;;;;;;25.63;42.20;93668.88;4837222;29;7411;-55
2023/11/01 03:13:19;;;;;;;;;;;;;;;25.63;41.83;93674.38;4835820;29;9099;-55
2023/11/01 03:15:49;;;;;;;;;;;;;;;25.61;42.57;93669.41;4837863;29;9132;-54
2023/11/01 03:18:15;;;;;;;;;;;;;;;25.62;42.06;93659.84;4825693;29;7879;-55
2023/11/01 03:20:42;;;;;;;;;;;;;;;25.58;41.74;93661.47;4827689;29;9094;-55
2023/11/01 03:23:27;;;;;;;;;;;;;;;25.61;41.78;93647.38;4894440;29;7285;-55
2023/11/01 03:26:03;;;;;;;;;;;;;;;25.60;41.87;93661.69;4884624;29;8781;-55
2023/11/01 03:28:30;;;;;;;;;;;;;;;25.61;41.79;93665.91;4892732;29;7291;-55
2023/11/01 03:30:58;;;;;;;;;;;;;;;25.59;41.68;93660.94;4887324;29;9102;-55
2023/11/01 03:33:25;;;;;;;;;;;;;;;25.59;41.75;93660.94;4901725;29;8461;-56
2023/11/01 03:35:51;;;;;;;;;;;;;;;25.58;41.91;93651.16;4925685;28;7205;-55
2023/11/01 03:38:19;;;;;;;;;;;;;;;25.59;41.68;93655.44;4968921;28;9073;-55
2023/11/01 03:41:15;;;;;;;;;;;;;;;25.61;42.17;93647.38;4968214;28;7339;-55
2023/11/01 03:43:43;;;;;;;;;;;;;;;25.58;41.74;93650.44;4947164;29;7027;-55
2023/11/01 03:46:12;;;;;;;;;;;;;;;25.56;41.82;93650.97;4947726;29;8760;-55
2023/11/01 03:48:39;;;;;;;;;;;;;;;25.56;41.96;93659.22;4932634;29;7476;-54
2023/11/01 03:51:07;;;;;;;;;;;;;;;25.53;42.07;93657.53;4969415;28;9108;-55
2023/11/01 03:53:33;;;;;;;;;;;;;;;25.56;42.33;93656.47;4985523;28;7123;-55
2023/11/01 03:55:59;;;;;;;;;;;;;;;25.52;42.51;93649.78;4973497;28;7256;-55
2023/11/01 03:58:26;;;;;;;;;;;;;;;25.52;42.25;93656.03;4977052;28;7165;-55
2023/11/01 04:00:52;;;;;;;;;;;;;;;25.52;42.40;93647.03;4971464;28;7581;-55
2023/11/01 04:03:33;;;;;;;;;;;;;;;25.50;42.19;93647.56;4994356;28;7217;-53
2023/11/01 04:05:59;;;;;;;;;;;;;;;25.50;41.80;93644.81;4986632;28;7494;-55
2023/11/01 04:08:27;;;;;;;;;;;;;;;25.50;42.50;93639.31;4982356;28;8007;-55
2023/11/01 04:10:55;;;;;;;;;;;;;;;25.52;41.83;93641.53;4966894;28;7022;-52
2023/11/01 04:13:21;;;;;;;;;;;;;;;25.48;42.08;93628.09;4980817;28;6993;-55
2023/11/01 04:15:47;;;;;;;;;;;;;;;25.49;41.68;93637.09;4973533;28;7331;-53
2023/11/01 04:18:14;;;;;;;;;;;;;;;25.44;42.63;93630.41;4984841;28;7284;-55
2023/11/01 04:20:39;;;;;;;;;;;;;;;25.43;42.50;93624.16;5019436;28;8841;-55
2023/11/01 04:23:19;;;;;;;;;;;;;;;25.47;42.62;93612.09;5057613;28;9154;-55
2023/11/01 04:25:47;;;;;;;;;;;;;;;25.47;42.65;93612.81;5060663;28;9039;-55
2023/11/01 04:28:15;;;;;;;;;;;;;;;25.47;42.63;93609.34;5028388;28;7225;-55
2023/11/01 04:31:18;;;;;;;;;;;;;;;25.46;42.07;93603.09;5039976;28;7141;-55
2023/11/01 04:33:58;;;;;;;;;;;;;;;25.44;42.13;93600.13;4991953;28;7230;-55
2023/11/01 04:36:37;;;;;;;;;;;;;;;25.46;42.82;93605.09;4974328;28;8239;-55
2023/11/01 04:39:03;;;;;;;;;;;;;;;25.45;42.70;93601.59;4986157;28;7360;-55
2023/11/01 04:42:04;;;;;;;;;;;;;;;25.42;42.36;93597.16;4992684;28;7639;-55
2023/11/01 04:44:31;;;;;;;;;;;;;;;25.44;41.75;93600.13;4943669;28;6991;-55
2023/11/01 04:46:59;;;;;;;;;;;;;;;25.42;41.98;93602.69;4950293;28;7273;-55
2023/11/01 04:49:28;;;;;;;;;;;;;;;25.43;41.80;93598.63;4943994;28;9304;-55
2023/11/01 04:52:21;;;;;;;;;;;;;;;25.44;41.77;93591.88;4937337;28;6865;-55
2023/11/01 04:55:02;;;;;;;;;;;;;;;25.43;41.93;93587.63;4926046;29;6992;-55
2023/11/01 04:57:33;;;;;;;;;;;;;;;25.39;42.13;93576.16;4952450;28;7242;-55
2023/11/01 05:00:16;;;;;;;;;;;;;;;25.38;41.69;93561.66;4950064;28;7240;-55
2023/11/01 05:02:49;;;;;;;;;;;;;;;25.40;42.64;93561.16;4942313;28;8735;-55
2023/11/01 05:05:19;;;;;;;;;;;;;;;25.37;42.25;93559.44;4945796;28;7268;-55
2023/11/01 05:07:45;;;;;;;;;;;;;;;25.36;42.70;93566.94;4940882;28;7249;-55
2023/11/01 05:10:13;;;;;;;;;;;;;;;25.34;42.28;93558.47;4992091;28;7180;-55
2023/11/01 05:12:39;;;;;;;;;;;;;;;25.35;42.39;93553.72;4973556;28;7002;-55
2023/11/01 05:15:05;;;;;;;;;;;;;;;25.34;42.50;93558.47;4993762;28;9244;-55
2023/11/01 05:17:36;;;;;;;;;;;;;;;25.34;41.98;93550.22;4989382;28;7001;-55
2023/11/01 05:20:07;;;;;;;;;;;;;;;25.34;42.85;93552.22;4988551;28;7260;-55
2023/11/01 05:22:36;;;;;;;;;;;;;;;25.31;42.79;93550.53;5045386;28;9095;-54
2023/11/01 05:25:13;;;;;;;;;;;;;;;25.31;42.74;93548.53;5048819;28;7262;-59
2023/11/01 05:27:41;;;;;;;;;;;;;;;25.31;42.75;93543.03;5032574;28;7224;-60
2023/11/01 05:30:10;;;;;;;;;;;;;;;25.31;41.89;93537.53;5024493;28;7088;-60
2023/11/01 05:32:39;;;;;;;;;;;;;;;25.30;42.10;93543.53;5031362;28;8611;-60
2023/11/01 05:35:08;;;;;;;;;;;;;;;25.29;41.92;93550.34;5032757;28;9062;-60
2023/11/01 05:37:34;;;;;;;;;;;;;;;25.29;42.28;93550.34;5047442;28;7428;-60
2023/11/01 05:40:00;;;;;;;;;;;;;;;25.24;42.88;93540.91;5048585;28;7193;-60
2023/11/01 05:42:29;;;;;;;;;;;;;;;25.24;42.31;93537.41;5036488;28;7366;-60
2023/11/01 05:44:57;;;;;;;;;;;;;;;25.26;43.27;93534.88;5038922;28;8843;-60
2023/11/01 05:47:29;;;;;;;;;;;;;;;25.23;42.52;93530.41;5045203;28;6983;-60
2023/11/01 05:49:55;;;;;;;;;;;;;;;25.22;42.68;93526.19;5050309;28;7266;-60
2023/11/01 05:52:28;;;;;;;;;;;;;;;25.22;42.87;93526.19;5030230;28;7094;-60
2023/11/01 05:54:54;;;;;;;;;;;;;;;25.20;42.91;93523.22;5030688;28;7183;-60
2023/11/01 05:57:20;;;;;;;;;;;;;;;25.21;43.29;93524.69;5054867;28;7242;-60
2023/11/01 05:59:46;;;;;;;;;;;;;;;25.25;43.17;93511.38;5050853;28;9077;-60
2023/11/01 06:02:13;;;;;;;;;;;;;;;25.23;42.71;93519.41;5049266;28;7054;-60
2023/11/01 06:04:40;;;;;;;;;;;;;;;25.26;42.13;93518.34;5046226;28;7195;-60
2023/11/01 06:07:08;;;;;;;;;;;;;;;25.26;42.09;93501.84;5048235;28;9109;-59
2023/11/01 06:09:37;;;;;;;;;;;;;;;25.28;42.21;93510.31;5028646;28;7415;-60
2023/11/01 06:12:05;;;;;;;;;;;;;;;25.31;42.21;93506.50;5029077;28;7176;-60
2023/11/01 06:14:33;;;;;;;;;;;;;;;25.36;40.85;93508.38;5034493;28;7206;-60
2023/11/01 06:17:00;;;;;;;;;;;;;;;25.36;40.43;93508.38;5032548;28;7559;-60
2023/11/01 06:19:28;;;;;;;;;;;;;;;25.36;40.98;93492.63;5039670;28;9095;-60
2023/11/01 06:21:57;;;;;;;;;;;;;;;25.39;41.39;93488.06;5029096;28;8644;-60
2023/11/01 06:24:24;;;;;;;;;;;;;;;25.41;41.31;93493.78;5055166;28;6990;-60
2023/11/01 06:26:57;;;;;;;;;;;;;;;25.46;41.08;93498.47;5038588;28;9415;-60
2023/11/01 06:30:00;;;;;;;;;;;;;;;25.51;41.70;93500.38;5020875;28;7361;-60
2023/11/01 06:32:28;;;;;;;;;;;;;;;25.55;41.04;93500.81;4987390;28;7253;-60
2023/11/01 06:35:32;;;;;;;;;;;;;;;25.58;41.58;93496.25;4977799;28;7066;-59
2023/11/01 06:38:18;;;;;;;;;;;;;;;25.58;41.17;93490.75;4987601;28;7229;-59
2023/11/01 06:40:44;;;;;;;;;;;;;;;25.61;41.11;93489.66;4991965;28;7247;-59
2023/11/01 06:43:27;;;;;;;;;;;;;;;25.61;40.98;93482.16;4973048;28;7304;-59
2023/11/01 06:45:53;;;;;;;;;;;;;;;25.62;40.20;93483.63;4990556;28;7235;-58
2023/11/01 06:48:29;;;;;;;;;;;;;;;25.62;40.23;93482.91;4990847;28;8829;-59
2023/11/01 06:51:18;;;;;;;;;;;;;;;25.62;39.77;93486.38;4980765;28;7286;-58
2023/11/01 06:53:44;;;;;;;;;;;;;;;25.61;39.67;93476.63;4987543;28;7379;-59
2023/11/01 06:56:17;;;;;;;;;;;;;;;25.61;38.59;93486.91;4976128;28;7271;-59
2023/11/01 06:59:01;;;;;;;;;;;;;;;25.61;38.71;93481.41;4974259;28;7246;-59
2023/11/01 07:01:35;;;;;;;;;;;;;;;25.60;38.28;93483.41;4988497;28;7327;-59
2023/11/01 07:04:37;;;;;;;;;;;;;;;25.65;39.18;93481.81;4987123;28;7250;-60
2023/11/01 07:07:31;;;;;;;;;;;;;;;25.69;38.43;93477.47;4976314;28;6942;-59
2023/11/01 07:09:58;;;;;;;;;;;;;;;25.73;38.40;93490.94;4918452;29;7439;-59
2023/11/01 07:12:27;;;;;;;;;;;;;;;25.83;38.79;93483.69;4898449;29;9357;-59
2023/11/01 07:14:54;;;;;;;;;;;;;;;25.92;38.35;93481.22;4910698;29;7087;-59
2023/11/01 07:17:21;;;;;;;;;;;;;;;25.98;38.15;93487.34;4899470;29;6985;-59
2023/11/01 07:19:48;;;;;;;;;;;;;;;26.00;38.53;93493.06;4889164;29;7271;-59
2023/11/01 07:22:14;;;;;;;;;;;;;;;26.06;38.24;93492.94;4898025;29;8770;-59
2023/11/01 07:24:40;;;;;;;;;;;;;;;26.09;38.10;93498.16;4902318;29;8911;-59
2023/11/01 07:27:06;;;;;;;;;;;;;;;26.13;38.63;93486.78;4905310;29;9238;-60
2023/11/01 07:29:32;;;;;;;;;;;;;;;26.15;38.55;93487.75;4917705;29;7253;-60
2023/11/01 07:31:58;;;;;;;;;;;;;;;26.20;38.43;93497.16;4898521;29;9257;-59
2023/11/01 07:34:25;;;;;;;;;;;;;;;26.22;38.67;93496.63;4906088;29;7070;-59
2023/11/01 07:36:53;;;;;;;;;;;;;;;26.24;38.73;93496.81;4919262;29;9101;-59
2023/11/01 07:39:20;;;;;;;;;;;;;;;26.24;38.30;93497.56;4904705;29;7193;-60
2023/11/01 07:41:50;;;;;;;;;;;;;;;26.28;38.28;93491.72;4953413;28;8709;-60
2023/11/01 07:44:16;;;;;;;;;;;;;;;26.29;38.35;93491.19;4966578;28;7238;-56
2023/11/01 07:46:43;;;;;;;;;;;;;;;26.31;38.22;93485.13;5001542;28;9101;-56
2023/11/01 07:49:09;;;;;;;;;;;;;;;26.34;38.51;93487.53;5046348;28;7233;-56
2023/11/01 07:51:35;;;;;;;;;;;;;;;26.34;37.82;93481.31;5040855;28;7347;-56
2023/11/01 07:54:04;;;;;;;;;;;;;;;26.34;38.65;93484.78;5036587;28;9055;-56
2023/11/01 07:56:30;;;;;;;;;;;;;;;26.37;38.07;93488.50;5056380;28;9069;-56
2023/11/01 07:58:58;;;;;;;;;;;;;;;26.40;38.38;93485.41;5030682;28;7012;-56
2023/11/01 08:01:25;;;;;;;;;;;;;;;26.40;38.13;93481.91;5039984;28;7286;-56
2023/11/01 08:03:51;;;;;;;;;;;;;;;26.41;38.78;93480.63;5035624;28;8800;-56
2023/11/01 08:06:20;;;;;;;;;;;;;;;26.43;38.38;93469.78;5026550;28;9127;-56
2023/11/01 08:08:46;;;;;;;;;;;;;;;26.43;38.70;93465.03;5047627;28;7003;-56
2023/11/01 08:11:14;;;;;;;;;;;;;;;26.45;38.58;93472.75;5052446;28;7239;-56
2023/11/01 08:13:45;;;;;;;;;;;;;;;26.46;38.56;93463.22;5035971;28;6993;-56
2023/11/01 08:16:21;;;;;;;;;;;;;;;26.47;38.45;93470.22;5037758;28;7647;-56
2023/11/01 08:18:49;;;;;;;;;;;;;;;26.47;38.31;93462.66;5050057;28;8758;-56
2023/11/01 08:21:41;;;;;;;;;;;;;;;26.53;38.54;93468.06;5051109;28;7442;-56
2023/11/01 08:24:10;;;;;;;;;;;;;;;26.51;38.15;93473.38;5029437;28;6991;-56
2023/11/01 08:26:48;;;;;;;;;;;;;;;26.48;38.57;93460.66;5040391;28;7026;-56
2023/11/01 08:29:17;;;;;;;;;;;;;;;26.50;38.34;93469.13;5037757;28;9067;-56
2023/11/01 08:31:45;;;;;;;;;;;;;;;26.51;38.29;93465.09;5035344;28;7218;-56
2023/11/01 08:34:45;;;;;;;;;;;;;;;26.51;38.74;93465.81;5039755;28;9128;-56
2023/11/01 08:37:11;;;;;;;;;;;;;;;26.50;38.78;93469.13;5049366;28;7542;-56
2023/11/01 08:39:37;;;;;;;;;;;;;;;26.49;38.73;93470.41;5053295;28;7232;-56
2023/11/01 08:42:23;;;;;;;;;;;;;;;26.49;39.03;93473.88;5043171;28;7198;-56
2023/11/01 08:45:03;;;;;;;;;;;;;;;26.47;38.41;93476.44;5035182;28;9200;-56
2023/11/01 08:48:16;;;;;;;;;;;;;;;26.48;38.83;93483.47;5032100;28;8716;-56
2023/11/01 08:50:43;;;;;;;;;;;;;;;26.48;38.63;93482.72;4993019;28;7260;-56
2023/11/01 08:53:10;;;;;;;;;;;;;;;26.46;39.11;93474.25;4994507;28;8997;-56
2023/11/01 08:55:36;;;;;;;;;;;;;;;26.48;38.50;93474.44;4987836;28;9290;-60
2023/11/01 08:58:35;;;;;;;;;;;;;;;26.48;38.65;93477.19;5000674;28;7228;-60
2023/11/01 09:01:06;;;;;;;;;;;;;;;26.49;38.89;93481.44;4994066;28;7211;-60
2023/11/01 09:03:44;;;;;;;;;;;;;;;26.47;38.79;93481.97;4989189;28;7199;-61
2023/11/01 09:06:31;;;;;;;;;;;;;;;26.47;38.97;93470.22;5004171;28;7058;-60
2023/11/01 09:08:59;;;;;;;;;;;;;;;26.46;38.79;93474.25;4980995;28;7124;-60
2023/11/01 09:11:56;;;;;;;;;;;;;;;26.45;38.98;93467.22;4977891;28;9583;-60
2023/11/01 09:14:25;;;;;;;;;;;;;;;26.42;39.21;93462.81;4936575;29;7962;-60
2023/11/01 09:16:51;;;;;;;;;;;;;;;26.45;39.21;93467.22;4933245;29;9127;-60
2023/11/01 09:19:17;;;;;;;;;;;;;;;26.45;39.43;93476.25;4936644;29;9144;-60
2023/11/01 09:21:44;;;;;;;;;;;;;;;26.41;39.30;93475.09;4934113;29;8756;-60
2023/11/01 09:24:10;;;;;;;;;;;;;;;26.41;39.45;93478.59;4935183;29;7412;-60
2023/11/01 09:26:36;;;;;;;;;;;;;;;26.44;39.49;93482.31;4938994;28;9317;-60
2023/11/01 09:29:03;;;;;;;;;;;;;;;26.40;39.26;93482.66;4989972;28;7552;-60
2023/11/01 09:31:38;;;;;;;;;;;;;;;26.43;39.32;93480.81;4975978;28;9079;-60
2023/11/01 09:34:05;;;;;;;;;;;;;;;26.42;39.32;93482.13;4974258;28;7244;-60
2023/11/01 09:36:44;;;;;;;;;;;;;;;26.41;39.66;93477.88;4983636;28;7279;-60
2023/11/01 09:39:13;;;;;;;;;;;;;;;26.39;39.36;93474.91;4997020;28;7229;-60
2023/11/01 09:42:27;;;;;;;;;;;;;;;26.38;40.20;93476.91;4995511;28;7267;-60
2023/11/01 09:45:21;;;;;;;;;;;;;;;26.38;40.21;93473.44;4903586;29;7951;-60
2023/11/01 09:47:50;;;;;;;;;;;;;;;26.36;39.88;93465.69;4904234;29;9384;-60
2023/11/01 09:50:20;;;;;;;;;;;;;;;26.36;39.53;93470.47;4922456;29;8354;-60
2023/11/01 09:52:48;;;;;;;;;;;;;;;26.35;40.37;93471.75;4935595;29;8085;-60
2023/11/01 09:55:19;;;;;;;;;;;;;;;26.33;40.26;93463.28;4918505;29;9100;-60
2023/11/01 09:57:58;;;;;;;;;;;;;;;26.33;40.32;93477.06;4933209;29;7268;-60
2023/11/01 10:00:35;;;;;;;;;;;;;;;26.29;39.89;93466.38;4917178;29;7046;-60
2023/11/01 10:03:12;;;;;;;;;;;;;;;26.32;40.03;93470.09;4909885;29;7270;-60
2023/11/01 10:05:47;;;;;;;;;;;;;;;26.32;40.73;93459.06;4935093;29;8758;-59
2023/11/01 10:08:13;;;;;;;;;;;;;;;26.31;40.72;93460.31;4936228;29;6991;-59
2023/11/01 10:10:43;;;;;;;;;;;;;;;26.30;40.34;93461.59;4895615;28;1336093;-59
2023/11/01 10:13:14;;;;;;;;;;;;;;;26.28;40.52;93458.63;4927282;28;8717;-59
2023/11/01 10:16:04;;;;;;;;;;;;;;;26.29;39.92;93465.63;4916114;29;6990;-59
2023/11/01 10:18:43;;;;;;;;;;;;;;;26.26;39.81;93475.72;4915627;29;7402;-59
2023/11/01 10:21:21;;;;;;;;;;;;;;;26.24;40.12;93463.75;4951142;28;7007;-59
2023/11/01 10:23:57;;;;;;;;;;;;;;;26.24;40.48;93463.75;5037648;28;7249;-59
2023/11/01 10:26:35;;;;;;;;;;;;;;;26.24;40.86;93463.75;5040001;28;9194;-59
2023/11/01 10:29:41;;;;;;;;;;;;;;;26.25;40.09;93462.47;5042998;28;7258;-59
2023/11/01 10:32:17;;;;;;;;;;;;;;;26.22;39.22;93456.03;5033521;28;9289;-60
2023/11/01 10:34:46;;;;;;;;;;;;;;;26.22;38.38;93460.78;5029214;28;7267;-59
2023/11/01 10:37:40;;;;;;;;;;;;;;;26.20;36.78;93455.06;5047883;28;7162;-59
2023/11/01 10:40:08;;;;;;;;;;;;;;;26.20;37.35;93452.31;4985865;28;7438;-59
2023/11/01 10:42:45;;;;;;;;;;;;;;;26.15;36.85;93448.41;4988714;28;7395;-59
2023/11/01 10:45:11;;;;;;;;;;;;;;;26.11;36.08;93437.72;4989367;28;7517;-59
2023/11/01 10:47:47;;;;;;;;;;;;;;;26.10;35.57;93433.47;4992693;28;7245;-59
2023/11/01 10:50:28;;;;;;;;;;;;;;;26.13;35.61;93435.19;4993520;28;7795;-59
2023/11/01 10:53:32;;;;;;;;;;;;;;;26.14;35.34;93435.91;4978168;28;7292;-59
2023/11/01 10:56:13;;;;;;;;;;;;;;;26.12;35.54;93425.41;4927342;28;7698;-59
2023/11/01 10:59:35;;;;;;;;;;;;;;;26.13;35.39;93421.41;4934678;28;7268;-59
2023/11/01 11:02:24;;;;;;;;;;;;;;;26.09;35.56;93421.00;4936305;28;7926;-60
2023/11/01 11:05:05;;;;;;;;;;;;;;;26.10;36.03;93410.69;4920115;29;8776;-59
2023/11/01 11:07:56;;;;;;;;;;;;;;;26.11;35.54;93412.19;4910535;28;7087;-59
2023/11/01 11:11:13;;;;;;;;;;;;;;;26.12;36.39;93397.84;4930782;29;7134;-59
2023/11/01 11:13:51;;;;;;;;;;;;;;;26.12;36.97;93395.09;4910641;29;7227;-59
2023/11/01 11:17:03;;;;;;;;;;;;;;;26.13;36.94;93385.56;4923288;29;7436;-59
2023/11/01 11:20:05;;;;;;;;;;;;;;;26.09;37.98;93378.91;4930372;29;7137;-59
2023/11/01 11:22:52;;;;;;;;;;;;;;;26.11;37.94;93368.09;4915621;29;7617;-59
2023/11/01 11:25:50;;;;;;;;;;;;;;;26.11;38.77;93360.56;4934664;29;7446;-59
2023/11/01 11:28:22;;;;;;;;;;;;;;;26.11;39.12;93354.31;4917124;29;7220;-59
2023/11/01 11:31:05;;;;;;;;;;;;;;;26.05;39.19;93342.66;4981138;28;9038;-59
2023/11/01 11:33:52;;;;;;;;;;;;;;;26.07;39.13;93340.09;4985865;28;6987;-59
2023/11/01 11:36:23;;;;;;;;;;;;;;;26.06;39.12;93342.13;4977581;28;6981;-60
2023/11/01 11:39:10;;;;;;;;;;;;;;;26.07;39.68;93334.59;4989344;28;9139;-59
2023/11/01 11:41:38;;;;;;;;;;;;;;;26.08;38.98;93331.31;4987214;28;8125;-59
2023/11/01 11:44:13;;;;;;;;;;;;;;;26.06;39.66;93322.81;4965834;28;7066;-59
2023/11/01 11:47:29;;;;;;;;;;;;;;;26.12;40.30;93320.69;4988407;28;8236;-60
2023/11/01 11:50:19;;;;;;;;;;;;;;;26.14;40.36;93315.38;4953480;28;7515;-59
2023/11/01 11:52:54;;;;;;;;;;;;;;;26.14;40.12;93315.38;4970472;28;9090;-59
2023/11/01 11:55:43;;;;;;;;;;;;;;;26.18;40.22;93317.81;4981670;28;7279;-59
2023/11/01 11:58:09;;;;;;;;;;;;;;;26.16;40.03;93301.78;4954752;28;10503;-59
2023/11/01 12:00:35;;;;;;;;;;;;;;;26.21;40.09;93302.22;4966665;28;8892;-59
2023/11/01 12:03:01;;;;;;;;;;;;;;;26.21;40.08;93307.72;4964818;28;7323;-59
2023/11/01 12:05:32;;;;;;;;;;;;;;;26.22;40.46;93311.94;4962813;28;7372;-59
2023/11/01 12:08:01;;;;;;;;;;;;;;;26.21;40.33;93302.22;4985072;28;7261;-59
2023/11/01 12:10:30;;;;;;;;;;;;;;;26.19;39.91;93302.72;4971678;28;7461;-59
2023/11/01 12:13:04;;;;;;;;;;;;;;;26.21;40.14;93288.44;4967754;28;8754;-58
2023/11/01 12:15:45;;;;;;;;;;;;;;;26.16;40.20;93287.28;4985808;28;7362;-59
2023/11/01 12:18:36;;;;;;;;;;;;;;;26.20;40.56;93279.41;4942973;28;7692;-59
2023/11/01 12:21:12;;;;;;;;;;;;;;;26.17;40.83;93272.97;4939119;28;7512;-59
2023/11/01 12:23:45;;;;;;;;;;;;;;;26.20;40.44;93262.88;4958780;28;7376;-66
2023/11/01 12:26:12;;;;;;;;;;;;;;;26.20;40.65;93260.13;5013050;28;8801;-66
2023/11/01 12:28:48;;;;;;;;;;;;;;;26.16;40.66;93251.47;5027284;28;7246;-66
2023/11/01 12:31:15;;;;;;;;;;;;;;;26.19;40.96;93255.16;5027255;28;7542;-65
2023/11/01 12:33:41;;;;;;;;;;;;;;;26.19;41.01;93244.13;5045914;28;9126;-66
2023/11/01 12:36:08;;;;;;;;;;;;;;;26.16;40.89;93248.72;5037229;28;9236;-66
2023/11/01 12:38:36;;;;;;;;;;;;;;;26.17;41.06;93237.13;5033673;28;9027;-66
2023/11/01 12:41:13;;;;;;;;;;;;;;;26.17;40.82;93220.59;5042087;28;8200;-66
2023/11/01 12:44:24;;;;;;;;;;;;;;;26.17;40.78;93231.63;5045203;28;7290;-66
2023/11/01 12:47:07;;;;;;;;;;;;;;;26.18;41.05;93237.88;5036263;28;9122;-65
2023/11/01 12:49:39;;;;;;;;;;;;;;;26.13;40.65;93252.53;5055571;28;9069;-65
2023/11/01 12:52:25;;;;;;;;;;;;;;;26.12;41.11;93251.78;5038419;28;7308;-66
2023/11/01 12:54:57;;;;;;;;;;;;;;;26.10;40.86;93256.38;5042878;28;8760;-65
2023/11/01 12:57:25;;;;;;;;;;;;;;;26.10;40.86;93257.13;5040237;28;7248;-66
2023/11/01 13:00:03;;;;;;;;;;;;;;;26.15;41.20;93272.03;5029192;28;7406;-65
2023/11/01 13:03:02;;;;;;;;;;;;;;;26.16;40.85;93265.25;5051005;28;7392;-66
2023/11/01 13:05:43;;;;;;;;;;;;;;;26.14;40.81;93259.53;5008385;28;9039;-66
2023/11/01 13:08:19;;;;;;;;;;;;;;;26.19;40.58;93260.69;5006067;28;8805;-66
2023/11/01 13:10:45;;;;;;;;;;;;;;;26.20;39.93;93264.91;5004817;28;7200;-65
2023/11/01 13:13:11;;;;;;;;;;;;;;;26.14;39.09;93268.53;5000878;28;7279;-66
2023/11/01 13:15:47;;;;;;;;;;;;;;;26.14;39.03;93260.25;4997464;28;9109;-65
2023/11/01 13:18:16;;;;;;;;;;;;;;;26.11;37.52;93272.38;4994313;28;7218;-66
2023/11/01 13:21:01;;;;;;;;;;;;;;;26.06;37.97;93278.00;4990472;28;7506;-66
2023/11/01 13:23:51;;;;;;;;;;;;;;;26.05;37.56;93282.78;5004335;28;7200;-65
2023/11/01 13:26:20;;;;;;;;;;;;;;;26.05;37.65;93285.53;5015551;28;7268;-66
2023/11/01 13:28:47;;;;;;;;;;;;;;;26.06;37.89;93278.00;5012028;28;7165;-65
2023/11/01 13:31:45;;;;;;;;;;;;;;;26.06;38.40;93284.25;5013813;28;7303;-65
2023/11/01 13:34:21;;;;;;;;;;;;;;;26.10;38.56;93278.41;5008116;28;7322;-54
2023/11/01 13:37:06;;;;;;;;;;;;;;;26.08;38.60;93287.22;5005735;28;7583;-54
2023/11/01 13:39:33;;;;;;;;;;;;;;;26.04;38.41;93281.28;4987474;28;9465;-55
2023/11/01 13:42:05;;;;;;;;;;;;;;;26.03;38.66;93285.31;5028673;28;7170;-54
2023/11/01 13:44:41;;;;;;;;;;;;;;;26.03;38.63;93285.31;5034247;28;7164;-52
2023/11/01 13:47:09;;;;;;;;;;;;;;;26.03;38.99;93285.31;5045584;28;8760;-54